Main page
METAR-TAF:

METAR-TAF

Airports :

Sligo Airport

Sligo, Ireland

latitude: 54-16-49N, longitude: 8-35-57W, elevation: 3 m

Current weather observation

The report was made 49 minutes ago, at 09:30 UTC
Wind 7 kt from the East/Southeast
Temperature 8°C
Humidity 76%
Pressure 1025 hPa
Visibility 10 km or more
no clouds below 1500 m and no cumulonimbus

METAR: EISG 190930Z 11007KT CAVOK 08/04 Q1025

Time: 10:19 (10:19 UTC)

Forecast

The report was made 2 hours and 19 minutes ago, at 08:00 UTC
Forecast valid from 19 at 09 UTC to 19 at 18 UTC
Wind 12 kt from the East/Southeast
Visibility 10 km or more
Scattered clouds at a height of 2500 ft
Probability 40% :
Temporary
from 19 at 11 UTC to 19 at 14 UTC
Broken clouds at a height of 1400 ft

TAF: EISG 190800Z 1909/1918 11012KT 9999 SCT025 PROB40 TEMPO 1911/1914 BKN014

Weather observations and forecasts of more than 4000 airports (METAR and TAF reports).

The available stations are represented by yellow and red dots on the map.

Hover mouse over dot to see the name of the station.

Then click to see weather observations and forecasts.

To change the map : click on the green buttons with a black cross to zoom in, on the green button with a dash to zoom out, or on the green arrows for adjacent maps.


METAR-TAF: